createdAt,value
2022-10-29T00:00:20.086Z,87.30
2022-10-29T00:01:20.212Z,87.30
2022-10-29T00:02:20.133Z,87.19
2022-10-29T00:03:20.260Z,87.19
2022-10-29T00:04:20.066Z,87.40
2022-10-29T00:05:20.027Z,87.74
2022-10-29T00:06:20.025Z,87.95
2022-10-29T00:07:20.014Z,88.04
2022-10-29T00:08:20.004Z,88.15
2022-10-29T00:09:19.978Z,88.25
2022-10-29T00:10:19.965Z,88.35
2022-10-29T00:11:19.985Z,88.65
2022-10-29T00:12:19.935Z,88.75
2022-10-29T00:13:19.955Z,88.75
2022-10-29T00:14:19.912Z,88.85
2022-10-29T00:15:19.893Z,88.90
2022-10-29T00:16:19.885Z,89.00
2022-10-29T00:17:19.873Z,89.20
2022-10-29T00:18:19.887Z,89.30
2022-10-29T00:19:19.853Z,89.50
2022-10-29T00:20:19.843Z,89.61
2022-10-29T00:21:19.817Z,89.81
2022-10-29T00:22:19.804Z,89.91
2022-10-29T00:23:19.794Z,90.11
2022-10-29T00:24:19.788Z,90.21
2022-10-29T00:25:19.773Z,90.21
2022-10-29T00:26:19.762Z,90.21
2022-10-29T00:27:19.736Z,90.31
2022-10-29T00:28:19.745Z,90.31
2022-10-29T00:29:19.722Z,90.31
2022-10-29T00:30:19.713Z,90.31
2022-10-29T00:31:19.723Z,90.31
2022-10-29T00:32:19.759Z,90.45
2022-10-29T00:34:19.674Z,90.45
2022-10-29T00:35:19.640Z,90.45
2022-10-29T00:36:19.631Z,90.56
2022-10-29T00:37:19.619Z,90.66
2022-10-29T00:38:19.611Z,90.66
2022-10-29T00:39:19.581Z,90.66
2022-10-29T00:40:19.571Z,90.76
2022-10-29T00:41:19.564Z,90.86
2022-10-29T00:42:19.551Z,90.96
2022-10-29T00:43:19.551Z,91.06
2022-10-29T00:44:19.548Z,91.16
2022-10-29T00:45:19.513Z,91.16
2022-10-29T00:46:19.502Z,91.27
2022-10-29T00:47:19.489Z,91.27
2022-10-29T00:48:19.490Z,91.37
2022-10-29T00:49:19.463Z,91.37
2022-10-29T00:50:19.442Z,91.37
2022-10-29T00:51:19.420Z,91.47
2022-10-29T00:52:19.423Z,91.47
2022-10-29T00:53:19.412Z,91.37
2022-10-29T00:54:19.400Z,91.37
2022-10-29T00:55:19.385Z,91.37
2022-10-29T00:56:19.372Z,91.27
2022-10-29T00:57:19.350Z,91.27
2022-10-29T00:58:19.371Z,91.27
2022-10-29T00:59:19.334Z,91.27
2022-10-29T01:00:19.311Z,91.16
2022-10-29T01:01:19.498Z,91.06
2022-10-29T01:02:19.385Z,90.96
2022-10-29T01:03:19.281Z,90.96
2022-10-29T01:04:19.259Z,90.96
2022-10-29T01:05:19.249Z,90.86
2022-10-29T01:06:19.230Z,90.86
2022-10-29T01:07:19.212Z,90.86
2022-10-29T01:08:19.220Z,90.86
2022-10-29T01:09:19.198Z,90.96
2022-10-29T01:10:19.190Z,90.96
2022-10-29T01:11:19.170Z,90.96
2022-10-29T01:12:19.152Z,91.16
2022-10-29T01:13:19.153Z,91.16
2022-10-29T01:14:19.139Z,91.27
2022-10-29T01:15:19.118Z,91.16
2022-10-29T01:16:19.096Z,91.27
2022-10-29T01:17:19.078Z,91.37
2022-10-29T01:18:19.089Z,91.37
2022-10-29T01:19:19.114Z,91.37
2022-10-29T01:20:19.051Z,91.47
2022-10-29T01:21:19.028Z,91.47
2022-10-29T01:22:19.018Z,91.37
2022-10-29T01:23:19.029Z,91.37
2022-10-29T01:24:19.006Z,91.37
2022-10-29T01:25:18.988Z,91.37
2022-10-29T01:26:18.978Z,91.37
2022-10-29T01:27:18.945Z,91.27
2022-10-29T01:28:18.975Z,91.37
2022-10-29T01:29:18.918Z,91.41
2022-10-29T01:30:18.912Z,91.51
2022-10-29T01:31:18.887Z,91.51
2022-10-29T01:32:18.891Z,91.61
2022-10-29T01:33:18.876Z,91.71
2022-10-29T01:34:18.866Z,91.82
2022-10-29T01:35:18.836Z,91.92
2022-10-29T01:36:18.837Z,92.02
2022-10-29T01:37:18.817Z,92.02
2022-10-29T01:38:18.831Z,92.12
2022-10-29T01:39:18.776Z,92.22
2022-10-29T01:40:18.776Z,92.22
2022-10-29T01:41:18.755Z,92.32
2022-10-29T01:42:18.744Z,92.32
2022-10-29T01:44:18.726Z,92.63
2022-10-29T01:45:18.709Z,92.72
2022-10-29T01:46:18.697Z,92.83
2022-10-29T01:47:18.679Z,92.93
2022-10-29T01:48:18.689Z,92.93
2022-10-29T01:49:18.653Z,93.03
2022-10-29T01:50:18.654Z,93.03
2022-10-29T01:51:18.626Z,93.07
2022-10-29T01:52:18.624Z,93.07
2022-10-29T01:53:18.615Z,93.18
2022-10-29T01:54:18.597Z,93.18
2022-10-29T01:55:18.577Z,93.18
2022-10-29T01:56:18.568Z,93.18
2022-10-29T01:57:18.544Z,93.27
2022-10-29T01:58:18.565Z,93.48
2022-10-29T01:59:29.009Z,93.68
2022-10-29T02:00:19.516Z,93.68
2022-10-29T02:01:18.536Z,93.78
2022-10-29T02:02:18.484Z,93.88
2022-10-29T02:03:18.483Z,93.99
2022-10-29T02:04:18.466Z,93.99
2022-10-29T02:05:18.453Z,94.09
2022-10-29T02:06:18.454Z,94.09
2022-10-29T02:07:18.423Z,93.99
2022-10-29T02:08:18.414Z,93.99
2022-10-29T02:09:18.404Z,94.13
2022-10-29T02:10:18.398Z,94.13
2022-10-29T02:11:18.370Z,94.13
2022-10-29T02:12:18.364Z,94.13
2022-10-29T02:13:18.407Z,94.23
2022-10-29T02:14:18.333Z,94.23
2022-10-29T02:15:18.314Z,94.23
2022-10-29T02:16:18.302Z,94.23
2022-10-29T02:17:18.291Z,94.23
2022-10-29T02:18:18.314Z,94.23
2022-10-29T02:19:18.272Z,94.23
2022-10-29T02:20:18.262Z,94.34
2022-10-29T02:21:18.248Z,94.34
2022-10-29T02:22:18.237Z,94.34
2022-10-29T02:23:18.243Z,94.43
2022-10-29T02:24:18.212Z,94.54
2022-10-29T02:25:18.222Z,94.58
2022-10-29T02:26:18.191Z,94.58
2022-10-29T02:27:18.174Z,94.58
2022-10-29T02:28:18.180Z,94.58
2022-10-29T02:29:18.150Z,94.68
2022-10-29T02:30:18.140Z,94.68
2022-10-29T02:31:18.119Z,94.78
2022-10-29T02:32:18.123Z,94.78
2022-10-29T02:33:18.110Z,94.98
2022-10-29T02:34:18.083Z,94.98
2022-10-29T02:35:18.071Z,95.29
2022-10-29T02:36:18.054Z,95.29
2022-10-29T02:37:18.064Z,95.39
2022-10-29T02:38:18.040Z,95.39
2022-10-29T02:39:18.024Z,95.50
2022-10-29T02:40:18.008Z,95.50
2022-10-29T02:41:18.000Z,95.59
2022-10-29T02:42:17.989Z,95.59
2022-10-29T02:44:17.956Z,95.64
2022-10-29T02:45:17.944Z,95.64
2022-10-29T02:46:17.941Z,95.64
2022-10-29T02:47:17.928Z,95.64
2022-10-29T02:48:17.919Z,95.74
2022-10-29T02:49:17.900Z,95.74
2022-10-29T02:50:17.884Z,95.74
2022-10-29T02:51:17.872Z,95.74
2022-10-29T02:52:17.852Z,95.74
2022-10-29T02:53:17.858Z,95.74
2022-10-29T02:54:17.840Z,95.74
2022-10-29T02:55:17.822Z,95.74
2022-10-29T02:56:17.809Z,95.74
2022-10-29T02:57:17.808Z,95.74
2022-10-29T02:58:17.849Z,95.79
2022-10-29T02:59:17.767Z,95.79
2022-10-29T03:00:17.766Z,95.79
2022-10-29T03:01:17.799Z,95.89
2022-10-29T03:02:17.882Z,95.89
2022-10-29T03:03:17.735Z,95.99
2022-10-29T03:04:17.717Z,95.99
2022-10-29T03:05:17.700Z,95.99
2022-10-29T03:06:17.687Z,96.09
2022-10-29T03:07:17.667Z,96.09
2022-10-29T03:08:17.676Z,96.09
2022-10-29T03:09:17.637Z,96.09
2022-10-29T03:10:17.638Z,96.09
2022-10-29T03:11:17.634Z,96.09
2022-10-29T03:12:17.602Z,96.09
2022-10-29T03:13:17.607Z,96.19
2022-10-29T03:14:17.586Z,96.34
2022-10-29T03:15:17.575Z,96.44
2022-10-29T03:16:17.547Z,96.54
2022-10-29T03:17:17.546Z,96.64
2022-10-29T03:18:17.545Z,96.75
2022-10-29T03:19:17.519Z,96.84
2022-10-29T03:20:17.524Z,96.95
2022-10-29T03:21:17.494Z,97.05
2022-10-29T03:22:17.484Z,97.05
2022-10-29T03:23:17.487Z,97.25
2022-10-29T03:24:17.454Z,97.35
2022-10-29T03:25:17.449Z,97.35
2022-10-29T03:26:17.424Z,97.45
2022-10-29T03:27:17.421Z,97.45
2022-10-29T03:28:17.408Z,97.45
2022-10-29T03:29:17.394Z,97.56
2022-10-29T03:30:17.374Z,97.56
2022-10-29T03:31:17.373Z,97.56
2022-10-29T03:32:17.351Z,97.56
2022-10-29T03:33:17.353Z,97.66
2022-10-29T03:34:17.323Z,97.66
2022-10-29T03:35:17.314Z,97.76
2022-10-29T03:36:17.359Z,97.86
2022-10-29T03:37:17.282Z,97.86
2022-10-29T03:38:17.293Z,97.86
2022-10-29T03:39:17.253Z,97.86
2022-10-29T03:40:17.253Z,97.96
2022-10-29T03:41:17.234Z,97.96
2022-10-29T03:42:17.229Z,97.96
2022-10-29T03:43:17.225Z,97.96
2022-10-29T03:44:17.202Z,98.01
2022-10-29T03:45:17.184Z,98.01
2022-10-29T03:46:17.173Z,98.11
2022-10-29T03:47:17.160Z,98.16
2022-10-29T03:48:17.162Z,98.32
2022-10-29T03:49:17.132Z,98.32
2022-10-29T03:50:17.135Z,98.27
2022-10-29T03:51:17.114Z,98.32
2022-10-29T03:52:17.102Z,98.32
2022-10-29T03:53:17.092Z,98.41
2022-10-29T03:54:17.071Z,98.41
2022-10-29T03:55:17.059Z,98.27
2022-10-29T03:56:17.048Z,98.41
2022-10-29T03:57:17.032Z,98.41
2022-10-29T03:58:17.039Z,98.41
2022-10-29T03:59:17.010Z,98.41
2022-10-29T04:00:16.998Z,98.41
2022-10-29T04:01:17.064Z,98.57
2022-10-29T04:02:17.105Z,98.57
2022-10-29T04:03:16.971Z,98.57
2022-10-29T04:04:16.949Z,98.57
2022-10-29T04:05:16.941Z,98.57
2022-10-29T04:06:16.932Z,98.57
2022-10-29T04:07:16.902Z,98.57
2022-10-29T04:08:16.920Z,98.47
2022-10-29T04:09:16.880Z,98.47
2022-10-29T04:10:16.870Z,98.52
2022-10-29T04:11:16.849Z,98.47
2022-10-29T04:12:16.831Z,98.52
2022-10-29T04:13:16.859Z,98.47
2022-10-29T04:14:16.826Z,98.52
2022-10-29T04:15:16.817Z,98.47
2022-10-29T04:16:16.796Z,98.52
2022-10-29T04:17:16.778Z,98.52
2022-10-29T04:18:16.772Z,98.41
2022-10-29T04:19:16.748Z,98.52
2022-10-29T04:20:40.604Z,98.52
2022-10-29T04:28:42.493Z,98.41
2022-10-29T04:29:17.621Z,98.41
2022-10-29T04:30:16.629Z,98.41
2022-10-29T04:31:16.587Z,98.52
2022-10-29T04:32:16.597Z,98.52
2022-10-29T04:33:16.584Z,98.62
2022-10-29T04:34:16.565Z,98.68
2022-10-29T04:35:16.547Z,98.72
2022-10-29T04:36:16.539Z,98.72
2022-10-29T04:37:16.516Z,98.72
2022-10-29T04:38:16.518Z,98.72
2022-10-29T04:39:19.530Z,98.72
2022-10-29T04:40:17.485Z,98.72
2022-10-29T04:41:16.467Z,98.62
2022-10-29T04:42:16.466Z,98.62
2022-10-29T04:43:16.455Z,98.52
2022-10-29T04:44:16.436Z,98.52
2022-10-29T04:45:16.416Z,98.62
2022-10-29T04:46:16.417Z,98.62
2022-10-29T04:47:16.392Z,98.72
2022-10-29T04:48:16.395Z,98.82
2022-10-29T04:49:16.481Z,98.92
2022-10-29T04:50:16.354Z,99.02
2022-10-29T04:51:16.344Z,99.08
2022-10-29T04:52:16.339Z,99.08
2022-10-29T04:53:16.323Z,98.97
2022-10-29T04:54:16.308Z,99.08
2022-10-29T04:55:16.293Z,99.08
2022-10-29T04:56:16.287Z,98.97
2022-10-29T04:57:16.264Z,98.97
2022-10-29T04:58:16.262Z,98.97
2022-10-29T04:59:16.235Z,98.88
2022-10-29T05:00:18.020Z,98.92
2022-10-29T05:01:16.324Z,98.82
2022-10-29T05:02:16.202Z,98.82
2022-10-29T05:03:16.201Z,98.82
2022-10-29T05:04:16.186Z,98.92
2022-10-29T05:05:16.160Z,98.97
2022-10-29T05:06:16.153Z,98.97
2022-10-29T05:07:16.140Z,98.97
2022-10-29T05:08:16.134Z,98.92
2022-10-29T05:09:16.104Z,98.92
2022-10-29T05:10:16.101Z,98.92
2022-10-29T05:11:16.086Z,99.13
2022-10-29T05:12:16.091Z,99.18
2022-10-29T05:13:16.070Z,99.08
2022-10-29T05:14:16.044Z,99.08
2022-10-29T05:15:16.033Z,99.18
2022-10-29T05:16:16.023Z,99.18
2022-10-29T05:17:16.016Z,99.18
2022-10-29T05:18:16.020Z,99.18
2022-10-29T05:19:15.980Z,99.18
2022-10-29T05:20:15.970Z,99.18
2022-10-29T05:21:15.970Z,99.18
2022-10-29T05:22:15.950Z,99.18
2022-10-29T05:23:15.949Z,99.08
2022-10-29T05:24:15.929Z,99.08
2022-10-29T05:25:15.909Z,99.08
2022-10-29T05:26:15.909Z,99.08
2022-10-29T05:27:15.881Z,99.08
2022-10-29T05:28:15.879Z,99.08
2022-10-29T05:29:15.857Z,99.08
2022-10-29T05:30:15.854Z,99.08
2022-10-29T05:31:15.831Z,99.08
2022-10-29T05:32:15.828Z,99.18
2022-10-29T05:33:15.818Z,99.28
2022-10-29T05:34:15.808Z,99.38
2022-10-29T05:35:15.787Z,99.28
2022-10-29T05:36:15.779Z,99.28
2022-10-29T05:37:15.759Z,99.28
2022-10-29T05:38:15.771Z,99.28
2022-10-29T05:39:15.738Z,99.18
2022-10-29T05:40:15.717Z,99.18
2022-10-29T05:41:15.697Z,99.18
2022-10-29T05:42:15.698Z,99.08
2022-10-29T05:43:15.691Z,99.08
2022-10-29T05:44:15.677Z,98.97
2022-10-29T05:45:15.657Z,98.97
2022-10-29T05:46:15.637Z,98.97
2022-10-29T05:47:15.629Z,98.88
2022-10-29T05:48:15.633Z,98.88
2022-10-29T05:49:15.606Z,98.77
2022-10-29T05:50:15.595Z,98.73
2022-10-29T05:51:15.588Z,98.73
2022-10-29T05:52:15.575Z,98.73
2022-10-29T05:53:15.596Z,98.73
2022-10-29T05:54:15.548Z,98.63
2022-10-29T05:55:15.515Z,98.52
2022-10-29T05:56:15.525Z,98.43
2022-10-29T05:57:15.496Z,98.43
2022-10-29T05:58:15.506Z,98.32
2022-10-29T05:59:15.466Z,98.22
2022-10-29T06:00:15.467Z,98.22
2022-10-29T06:01:15.509Z,98.12
2022-10-29T06:02:15.531Z,98.12
2022-10-29T06:03:15.511Z,98.02
2022-10-29T06:04:15.424Z,98.02
2022-10-29T06:05:15.397Z,97.92
2022-10-29T06:06:15.519Z,97.92
2022-10-29T06:07:15.375Z,97.92
2022-10-29T06:08:15.385Z,97.92
2022-10-29T06:09:15.343Z,97.81
2022-10-29T06:10:15.344Z,97.81
2022-10-29T06:11:15.322Z,97.71
2022-10-29T06:12:15.312Z,97.71
2022-10-29T06:13:15.304Z,97.61
2022-10-29T06:14:15.284Z,97.61
2022-10-29T06:15:15.272Z,97.61
2022-10-29T06:16:15.264Z,97.61
2022-10-29T06:17:15.258Z,97.51
2022-10-29T06:18:15.243Z,97.41
2022-10-29T06:19:15.224Z,97.16
2022-10-29T06:20:15.214Z,96.96
2022-10-29T06:21:15.203Z,96.75
2022-10-29T06:22:15.182Z,96.55
2022-10-29T06:23:15.192Z,96.35
2022-10-29T06:24:15.152Z,96.25
2022-10-29T06:25:15.142Z,96.04
2022-10-29T06:26:15.135Z,95.94
2022-10-29T06:27:15.133Z,95.84
2022-10-29T06:28:15.173Z,95.74
2022-10-29T06:29:15.102Z,95.74
2022-10-29T06:30:15.083Z,95.74
2022-10-29T06:31:15.072Z,95.74
2022-10-29T06:32:15.052Z,95.64
2022-10-29T06:33:15.061Z,95.74
2022-10-29T06:34:15.106Z,95.64
2022-10-29T06:35:15.032Z,95.74
2022-10-29T06:36:15.007Z,95.74
2022-10-29T06:37:14.991Z,95.64
2022-10-29T06:38:15.029Z,95.54
2022-10-29T06:39:14.979Z,95.39
2022-10-29T06:40:14.960Z,95.09
2022-10-29T06:41:14.941Z,94.98
2022-10-29T06:42:14.946Z,94.89
2022-10-29T06:43:14.933Z,94.89
2022-10-29T06:44:14.900Z,94.78
2022-10-29T06:45:14.903Z,94.78
2022-10-29T06:46:14.897Z,94.78
2022-10-29T06:47:14.859Z,94.68
2022-10-29T06:48:19.144Z,94.68
2022-10-29T06:49:15.840Z,94.78
2022-10-29T06:50:14.842Z,94.78
2022-10-29T06:51:14.854Z,94.89
2022-10-29T06:52:14.809Z,94.98
2022-10-29T06:53:14.799Z,94.89
2022-10-29T06:54:14.789Z,94.89
2022-10-29T06:55:14.769Z,94.89
2022-10-29T06:56:14.748Z,94.89
2022-10-29T06:57:14.748Z,94.98
2022-10-29T06:58:14.739Z,94.98
2022-10-29T06:59:14.718Z,95.09
2022-10-29T07:00:14.718Z,94.98
2022-10-29T07:01:14.724Z,94.98
2022-10-29T07:02:14.685Z,95.09
2022-10-29T07:03:14.683Z,95.19
2022-10-29T07:04:14.648Z,95.29
2022-10-29T07:05:14.637Z,95.29
2022-10-29T07:06:14.628Z,95.29
2022-10-29T07:07:14.680Z,95.35
2022-10-29T07:08:14.616Z,95.35
2022-10-29T07:09:14.596Z,95.35
2022-10-29T07:10:14.576Z,95.45
2022-10-29T07:11:14.567Z,95.45
2022-10-29T07:12:14.568Z,95.55
2022-10-29T07:13:14.547Z,95.55
2022-10-29T07:14:14.537Z,95.25
2022-10-29T07:15:14.515Z,94.74
2022-10-29T07:16:14.504Z,94.43
2022-10-29T07:17:14.485Z,93.88
2022-10-29T07:18:14.487Z,93.38
2022-10-29T07:19:14.465Z,92.57
2022-10-29T07:20:14.456Z,92.02
2022-10-29T07:21:14.457Z,91.61
2022-10-29T07:22:14.449Z,91.31
2022-10-29T07:23:14.459Z,91.00
2022-10-29T07:24:14.395Z,90.60
2022-10-29T07:25:14.412Z,90.30
2022-10-29T07:26:14.384Z,90.16
2022-10-29T07:27:14.419Z,90.05
2022-10-29T07:28:14.354Z,90.16
2022-10-29T07:29:14.337Z,89.95
2022-10-29T07:30:14.333Z,89.65
2022-10-29T07:31:14.305Z,89.54
2022-10-29T07:32:14.316Z,89.54
2022-10-29T07:33:14.306Z,89.24
2022-10-29T07:34:14.274Z,89.20
2022-10-29T07:35:14.263Z,89.10
2022-10-29T07:36:14.254Z,89.00
2022-10-29T07:37:14.233Z,88.90
2022-10-29T07:38:14.245Z,88.79
2022-10-29T07:39:14.214Z,88.79
2022-10-29T07:40:14.203Z,88.79
2022-10-29T07:41:14.182Z,88.79
2022-10-29T07:42:14.172Z,88.70
2022-10-29T07:43:14.165Z,88.49
2022-10-29T07:44:14.294Z,88.35
2022-10-29T07:45:14.123Z,88.25
2022-10-29T07:46:14.121Z,87.95
2022-10-29T07:47:14.103Z,87.84
2022-10-29T07:48:14.101Z,87.84
2022-10-29T07:49:14.095Z,87.95
2022-10-29T07:50:14.081Z,88.04
2022-10-29T07:51:14.061Z,87.84
2022-10-29T07:52:14.050Z,87.50
2022-10-29T07:53:14.050Z,87.40
2022-10-29T07:54:14.917Z,87.50
2022-10-29T07:55:14.001Z,87.30
2022-10-29T07:56:13.991Z,86.99
2022-10-29T07:57:13.973Z,86.90
2022-10-29T07:58:13.980Z,86.69
2022-10-29T07:59:13.965Z,86.69
2022-10-29T08:00:13.950Z,85.99
2022-10-29T08:01:14.048Z,85.44
2022-10-29T08:02:13.954Z,85.14
2022-10-29T08:03:13.909Z,85.19
2022-10-29T08:04:13.894Z,84.79
2022-10-29T08:05:13.871Z,84.49
2022-10-29T08:06:13.860Z,84.09
2022-10-29T08:07:13.838Z,83.78
2022-10-29T08:08:13.850Z,83.64
2022-10-29T08:09:13.825Z,83.54
2022-10-29T08:10:13.812Z,83.54
2022-10-29T08:11:13.791Z,83.54
2022-10-29T08:12:13.797Z,83.54
2022-10-29T08:13:13.779Z,83.74
2022-10-29T08:14:15.712Z,83.24
2022-10-29T08:15:13.738Z,83.34
2022-10-29T08:16:13.728Z,83.24
2022-10-29T08:17:13.718Z,83.24
2022-10-29T08:18:13.718Z,83.04
2022-10-29T08:19:13.685Z,83.24
2022-10-29T08:20:13.678Z,83.04
2022-10-29T08:21:13.662Z,83.04
2022-10-29T08:22:13.647Z,82.84
2022-10-29T08:23:13.647Z,82.84
2022-10-29T08:24:13.626Z,82.64
2022-10-29T08:25:13.606Z,82.39
2022-10-29T08:26:13.603Z,82.19
2022-10-29T08:27:13.587Z,81.68
2022-10-29T08:28:13.594Z,81.68
2022-10-29T08:29:13.547Z,81.48
2022-10-29T08:30:13.548Z,81.45
2022-10-29T08:31:13.518Z,81.15
2022-10-29T08:32:13.510Z,80.64
2022-10-29T08:33:13.506Z,80.64
2022-10-29T08:34:13.487Z,80.54
2022-10-29T08:35:13.481Z,80.54
2022-10-29T08:36:13.478Z,80.54
2022-10-29T08:37:13.437Z,80.33
2022-10-29T08:38:13.453Z,80.10
2022-10-29T08:39:13.418Z,80.00
2022-10-29T08:40:13.406Z,80.30
2022-10-29T08:41:13.386Z,80.10
2022-10-29T08:42:13.375Z,79.80
2022-10-29T08:43:13.377Z,79.49
2022-10-29T08:44:13.366Z,79.80
2022-10-29T08:45:13.337Z,79.49
2022-10-29T08:46:13.326Z,79.36
2022-10-29T08:47:13.316Z,78.75
2022-10-29T08:48:14.045Z,79.05
2022-10-29T08:49:13.295Z,78.96
2022-10-29T08:50:13.279Z,78.75
2022-10-29T08:51:13.262Z,78.85
2022-10-29T08:52:13.243Z,78.41
2022-10-29T08:53:22.816Z,78.41
2022-10-29T08:55:14.203Z,77.81
2022-10-29T08:56:13.192Z,77.81
2022-10-29T08:57:13.180Z,77.70
2022-10-29T08:58:13.172Z,77.61
2022-10-29T08:59:13.162Z,77.81
2022-10-29T09:00:13.151Z,77.70
2022-10-29T09:01:13.224Z,77.40
2022-10-29T09:02:13.165Z,77.27
2022-10-29T09:03:13.093Z,77.17
2022-10-29T09:04:13.104Z,76.73
2022-10-29T09:05:13.070Z,77.43
2022-10-29T09:06:13.064Z,76.49
2022-10-29T09:07:13.054Z,75.49
2022-10-29T09:08:13.036Z,74.55
2022-10-29T09:09:13.033Z,74.85
2022-10-29T09:10:13.012Z,75.25
2022-10-29T09:11:12.992Z,74.61
2022-10-29T09:12:12.981Z,73.81
2022-10-29T09:13:12.962Z,73.37
2022-10-29T09:14:12.980Z,73.77
2022-10-29T09:15:12.944Z,72.13
2022-10-29T09:16:12.934Z,72.13
2022-10-29T09:17:15.432Z,72.13
2022-10-29T09:18:12.910Z,72.24
2022-10-29T09:19:12.910Z,71.83
2022-10-29T09:20:12.872Z,71.83
2022-10-29T09:21:12.871Z,71.93
2022-10-29T09:22:12.853Z,71.73
2022-10-29T09:23:12.846Z,72.24
2022-10-29T09:24:12.840Z,71.83
2022-10-29T09:25:12.820Z,71.83
2022-10-29T09:26:12.812Z,72.03
2022-10-29T09:27:12.783Z,71.73
2022-10-29T09:28:12.770Z,72.70
2022-10-29T09:29:12.771Z,71.50
2022-10-29T09:30:12.743Z,72.09
2022-10-29T09:31:12.748Z,72.40
2022-10-29T09:32:12.720Z,72.16
2022-10-29T09:33:12.710Z,70.66
2022-10-29T09:34:12.711Z,70.56
2022-10-29T09:35:12.691Z,70.46
2022-10-29T09:36:12.670Z,70.46
2022-10-29T09:37:12.670Z,70.86
2022-10-29T09:38:12.650Z,70.26
2022-10-29T09:39:12.650Z,70.62
2022-10-29T09:40:12.618Z,70.83
2022-10-29T09:41:12.611Z,70.32
2022-10-29T09:42:12.590Z,69.12
2022-10-29T09:43:12.590Z,68.52
2022-10-29T09:44:12.608Z,69.12
2022-10-29T09:45:12.559Z,69.32
2022-10-29T09:46:12.546Z,70.53
2022-10-29T09:47:12.541Z,69.73
2022-10-29T09:48:12.518Z,69.42
2022-10-29T09:49:12.533Z,68.82
2022-10-29T09:50:12.499Z,68.73
2022-10-29T09:51:12.486Z,68.32
2022-10-29T09:52:12.469Z,68.62
2022-10-29T09:53:12.451Z,68.42
2022-10-29T09:54:12.448Z,68.02
2022-10-29T09:55:12.430Z,68.22
2022-10-29T09:56:12.409Z,68.52
2022-10-29T09:57:12.426Z,68.42
2022-10-29T09:58:12.389Z,68.42
2022-10-29T09:59:12.410Z,68.82
2022-10-29T10:00:12.746Z,68.99
2022-10-29T10:01:12.412Z,69.59
2022-10-29T10:02:12.397Z,68.29
2022-10-29T10:03:12.369Z,68.69
2022-10-29T10:04:12.331Z,68.79
2022-10-29T10:05:12.315Z,68.86
2022-10-29T10:06:12.278Z,68.36
2022-10-29T10:07:12.327Z,68.26
2022-10-29T10:08:12.328Z,67.93
2022-10-29T10:09:12.329Z,67.22
2022-10-29T10:10:12.338Z,67.32
2022-10-29T10:11:12.367Z,67.22
2022-10-29T10:12:12.209Z,67.63
2022-10-29T10:13:16.760Z,67.13
2022-10-29T10:14:13.186Z,66.72
2022-10-29T10:15:12.169Z,66.86
2022-10-29T10:16:12.157Z,67.46
2022-10-29T10:17:12.217Z,67.46
2022-10-29T10:18:12.130Z,68.05
2022-10-29T10:19:12.117Z,68.76
2022-10-29T10:20:12.108Z,67.43
2022-10-29T10:21:12.098Z,68.02
2022-10-29T10:22:15.461Z,68.23
2022-10-29T10:23:12.097Z,67.02
2022-10-29T10:24:12.048Z,66.82
2022-10-29T10:25:12.122Z,66.42
2022-10-29T10:26:12.025Z,66.82
2022-10-29T10:27:12.010Z,67.22
2022-10-29T10:28:11.996Z,66.63
2022-10-29T10:29:12.028Z,66.72
2022-10-29T10:30:11.976Z,66.22
2022-10-29T10:31:12.031Z,66.52
2022-10-29T10:32:11.947Z,66.82
2022-10-29T10:33:12.006Z,67.82
2022-10-29T10:34:11.918Z,66.89
2022-10-29T10:35:11.940Z,66.99
2022-10-29T10:36:11.904Z,66.99
2022-10-29T10:37:11.876Z,66.79
2022-10-29T10:38:11.874Z,66.76
2022-10-29T10:39:11.856Z,66.43
2022-10-29T10:40:11.844Z,64.80
2022-10-29T10:41:11.865Z,65.20
2022-10-29T10:42:11.818Z,64.57
2022-10-29T10:43:11.827Z,63.67
2022-10-29T10:44:11.786Z,64.64
2022-10-29T10:45:11.775Z,64.81
2022-10-29T10:46:11.788Z,63.41
2022-10-29T10:47:11.758Z,62.51
2022-10-29T10:48:11.857Z,62.38
2022-10-29T10:49:11.741Z,60.79
2022-10-29T10:50:11.740Z,62.18
2022-10-29T10:51:11.714Z,61.41
2022-10-29T10:52:11.696Z,61.32
2022-10-29T10:53:11.697Z,61.11
2022-10-29T10:54:11.715Z,61.41
2022-10-29T10:55:11.666Z,61.02
2022-10-29T10:56:11.636Z,61.22
2022-10-29T10:57:11.643Z,60.62
2022-10-29T10:58:11.634Z,61.61
2022-10-29T10:59:11.614Z,61.41
2022-10-29T11:00:11.587Z,60.42
2022-10-29T11:01:11.628Z,60.55
2022-10-29T11:02:11.610Z,60.25
2022-10-29T11:03:11.592Z,60.28
2022-10-29T11:04:11.545Z,61.27
2022-10-29T11:05:11.534Z,60.78
2022-10-29T11:06:11.508Z,61.47
2022-10-29T11:07:11.498Z,61.68
2022-10-29T11:08:11.503Z,60.68
2022-10-29T11:09:11.478Z,60.68
2022-10-29T11:10:11.475Z,61.94
2022-10-29T11:11:11.446Z,63.44
2022-10-29T11:12:11.445Z,61.82
2022-10-29T11:13:11.444Z,59.99
2022-10-29T11:14:11.412Z,59.69
2022-10-29T11:15:11.394Z,59.72
2022-10-29T11:16:11.393Z,60.62
2022-10-29T11:17:11.363Z,60.42
2022-10-29T11:18:11.426Z,61.22
2022-10-29T11:19:11.357Z,60.02
2022-10-29T11:20:11.334Z,60.32
2022-10-29T11:21:11.324Z,60.52
2022-10-29T11:22:11.322Z,60.32
2022-10-29T11:23:11.293Z,60.49
2022-10-29T11:24:11.303Z,59.99
2022-10-29T11:25:11.264Z,59.36
2022-10-29T11:26:11.264Z,58.57
2022-10-29T11:27:11.235Z,57.67
2022-10-29T11:28:11.234Z,58.47
2022-10-29T11:29:11.233Z,58.54
2022-10-29T11:30:11.203Z,59.44
2022-10-29T11:31:11.192Z,56.82
2022-10-29T11:32:11.184Z,56.52
2022-10-29T11:33:11.215Z,57.92
2022-10-29T11:34:11.174Z,56.30
2022-10-29T11:35:11.143Z,56.20
2022-10-29T11:36:11.142Z,55.70
2022-10-29T11:37:11.117Z,57.39
2022-10-29T11:38:11.113Z,56.40
2022-10-29T11:39:11.103Z,55.60
2022-10-29T11:40:11.073Z,55.50
2022-10-29T11:41:11.053Z,56.20
2022-10-29T11:42:11.043Z,56.00
2022-10-29T11:43:11.044Z,56.10
2022-10-29T11:44:11.044Z,55.90
2022-10-29T11:45:11.005Z,55.23
2022-10-29T11:46:11.010Z,55.73
2022-10-29T11:47:10.982Z,55.93
2022-10-29T11:48:11.016Z,56.02
2022-10-29T11:49:10.962Z,56.45
2022-10-29T11:50:10.952Z,56.45
2022-10-29T11:51:10.939Z,56.65
2022-10-29T11:52:10.923Z,56.15
2022-10-29T11:53:10.902Z,56.65
2022-10-29T11:54:10.903Z,56.87
2022-10-29T11:55:10.900Z,56.77
2022-10-29T11:56:10.905Z,56.08
2022-10-29T11:57:10.903Z,57.07
2022-10-29T11:58:10.882Z,56.18
2022-10-29T11:59:10.834Z,56.90
2022-10-29T12:00:10.832Z,56.81
2022-10-29T12:01:11.015Z,57.00
2022-10-29T12:02:10.821Z,57.00
2022-10-29T12:03:10.789Z,57.10
2022-10-29T12:05:10.787Z,57.40
2022-10-29T12:06:10.742Z,57.40
2022-10-29T12:07:10.740Z,57.40
2022-10-29T12:08:10.721Z,56.81
2022-10-29T12:09:10.702Z,57.00
2022-10-29T12:10:10.702Z,57.50
2022-10-29T12:11:10.682Z,56.70
2022-10-29T12:12:10.671Z,57.70
2022-10-29T12:13:10.651Z,57.90
2022-10-29T12:14:10.631Z,58.10
2022-10-29T12:15:10.622Z,57.90
2022-10-29T12:16:10.631Z,58.00
2022-10-29T12:17:10.606Z,57.70
2022-10-29T12:18:10.696Z,57.90
2022-10-29T12:19:10.571Z,58.00
2022-10-29T12:20:10.603Z,57.90
2022-10-29T12:21:10.541Z,57.60
2022-10-29T12:22:10.551Z,58.10
2022-10-29T12:23:14.514Z,56.81
2022-10-29T12:24:10.521Z,56.70
2022-10-29T12:25:10.500Z,57.70
2022-10-29T12:26:10.480Z,57.53
2022-10-29T12:27:10.472Z,58.03
2022-10-29T12:28:10.479Z,57.53
2022-10-29T12:29:10.471Z,58.12
2022-10-29T12:30:10.531Z,58.00
2022-10-29T12:31:10.473Z,58.89
2022-10-29T12:32:10.406Z,58.80
2022-10-29T12:33:10.402Z,57.60
2022-10-29T12:34:10.384Z,58.00
2022-10-29T12:35:10.365Z,57.70
2022-10-29T12:36:10.361Z,58.10
2022-10-29T12:37:10.341Z,58.50
2022-10-29T12:38:10.354Z,57.20
2022-10-29T12:39:10.320Z,58.00
2022-10-29T12:40:10.389Z,58.80
2022-10-29T12:41:10.298Z,59.49
2022-10-29T12:42:10.280Z,59.17
2022-10-29T12:43:10.272Z,58.47
2022-10-29T12:44:10.265Z,58.07
2022-10-29T12:45:10.243Z,58.57
2022-10-29T12:46:25.537Z,57.57
2022-10-29T12:47:11.211Z,57.67
2022-10-29T12:48:10.201Z,59.27
2022-10-29T12:49:10.210Z,58.97
2022-10-29T12:50:10.228Z,56.87
2022-10-29T12:51:10.160Z,57.47
2022-10-29T12:52:10.145Z,58.94
2022-10-29T12:53:10.140Z,57.94
2022-10-29T12:54:10.142Z,61.03
2022-10-29T12:55:10.131Z,61.13
2022-10-29T12:56:10.100Z,62.62
2022-10-29T12:57:10.081Z,63.02
2022-10-29T12:58:10.060Z,63.02
2022-10-29T12:59:10.060Z,63.22
2022-10-29T13:00:10.070Z,61.23
2022-10-29T13:01:10.076Z,60.83
2022-10-29T13:02:12.209Z,61.63
2022-10-29T13:03:10.142Z,61.53
2022-10-29T13:04:09.991Z,57.94